createdAt,value
2022-10-23T00:01:20.125Z,64.90
2022-10-23T00:06:15.325Z,63.17
2022-10-23T00:11:15.091Z,53.80
2022-10-23T00:16:08.767Z,60.40
2022-10-23T00:21:03.445Z,58.72
2022-10-23T00:25:57.788Z,58.88
2022-10-23T00:30:50.945Z,59.92
2022-10-23T00:35:44.260Z,60.05
2022-10-23T00:40:38.260Z,61.92
2022-10-23T00:45:34.040Z,59.28
2022-10-23T00:50:30.387Z,56.47
2022-10-23T00:55:25.665Z,59.28
2022-10-23T01:00:23.289Z,58.03
2022-10-23T01:05:16.854Z,57.65
2022-10-23T01:10:30.623Z,62.22
2022-10-23T01:15:28.596Z,63.30
2022-10-23T01:20:33.587Z,67.88
2022-10-23T01:25:53.344Z,73.60
2022-10-23T01:30:47.513Z,62.60
2022-10-23T01:36:05.154Z,65.60
2022-10-23T01:41:39.925Z,61.13
2022-10-23T01:46:38.354Z,66.13
2022-10-23T01:51:35.736Z,63.55
2022-10-23T01:56:36.181Z,65.07
2022-10-23T02:01:30.975Z,55.08
2022-10-23T02:06:30.683Z,55.60
2022-10-23T02:11:24.279Z,60.70
2022-10-23T02:16:35.704Z,53.80
2022-10-23T02:21:53.288Z,49.30
2022-10-23T02:26:56.084Z,52.83
2022-10-23T02:31:50.297Z,54.92
2022-10-23T02:36:45.015Z,51.78
2022-10-23T02:41:49.077Z,56.45
2022-10-23T02:46:57.439Z,54.30
2022-10-23T02:52:46.424Z,53.80
2022-10-23T02:58:04.641Z,54.10
2022-10-23T03:03:38.454Z,49.97
2022-10-23T03:09:09.806Z,55.88
2022-10-23T03:14:44.176Z,52.92
2022-10-23T03:19:38.228Z,52.03
2022-10-23T03:24:32.251Z,58.83
2022-10-23T03:29:26.455Z,58.08
2022-10-23T03:34:20.823Z,70.93
2022-10-23T03:39:14.878Z,59.05
2022-10-23T03:44:08.980Z,65.97
2022-10-23T03:49:03.323Z,95.15
2022-10-23T03:53:56.629Z,98.80
2022-10-23T04:03:43.610Z,129.93
2022-10-23T04:08:37.563Z,134.13
2022-10-23T04:13:38.200Z,145.38
2022-10-23T04:18:33.323Z,145.07
2022-10-23T04:23:26.381Z,152.32
2022-10-23T04:28:20.608Z,146.88
2022-10-23T04:33:14.683Z,264.25
2022-10-23T04:38:09.724Z,207.75
2022-10-23T04:43:03.666Z,274.48
2022-10-23T04:48:02.389Z,362.23
2022-10-23T04:53:04.663Z,313.63
2022-10-23T04:58:15.453Z,233.45
2022-10-23T05:03:10.009Z,172.88
2022-10-23T05:08:07.673Z,176.23
2022-10-23T05:13:20.247Z,150.00
2022-10-23T05:18:20.319Z,348.13
2022-10-23T05:23:26.197Z,262.02
2022-10-23T05:28:23.737Z,159.30
2022-10-23T05:33:17.272Z,110.80
2022-10-23T05:38:11.027Z,127.15
2022-10-23T05:43:04.857Z,236.65
2022-10-23T05:48:29.977Z,262.17
2022-10-23T05:53:46.017Z,458.50
2022-10-23T05:58:58.829Z,188.23
2022-10-23T06:04:09.851Z,194.30
2022-10-23T06:09:32.436Z,153.52
2022-10-23T06:14:26.398Z,105.07
2022-10-23T06:19:21.070Z,185.60
2022-10-23T06:24:18.645Z,171.85
2022-10-23T06:29:34.451Z,117.55
2022-10-23T06:34:27.440Z,123.85
2022-10-23T06:39:22.220Z,136.27
2022-10-23T06:44:31.543Z,391.70
2022-10-23T06:54:28.923Z,350.88
2022-10-23T06:59:51.376Z,338.08
2022-10-23T07:04:46.447Z,339.13
2022-10-23T07:09:45.848Z,327.25
2022-10-23T07:14:47.564Z,412.93
2022-10-23T07:19:42.479Z,209.23
2022-10-23T07:24:38.595Z,153.52
2022-10-23T07:29:42.660Z,205.65
2022-10-23T07:34:37.686Z,186.05
2022-10-23T07:39:57.081Z,199.68
2022-10-23T07:44:51.508Z,184.55
2022-10-23T07:49:48.469Z,243.30
2022-10-23T07:54:51.796Z,345.05
2022-10-23T07:59:48.646Z,198.77
2022-10-23T08:04:53.299Z,255.30
2022-10-23T08:15:07.232Z,185.18
2022-10-23T08:20:21.908Z,157.57
2022-10-23T08:25:24.829Z,185.57
2022-10-23T08:30:25.039Z,197.45
2022-10-23T08:35:21.555Z,184.00
2022-10-23T08:40:21.409Z,197.00
2022-10-23T08:45:52.311Z,226.63
2022-10-23T08:51:15.136Z,204.27
2022-10-23T08:56:40.368Z,233.90
2022-10-23T09:01:43.859Z,247.30
2022-10-23T09:07:05.230Z,222.15
2022-10-23T09:12:16.158Z,256.90
2022-10-23T09:17:30.958Z,265.90
2022-10-23T09:22:31.785Z,239.65
2022-10-23T09:27:30.902Z,234.98
2022-10-23T09:32:38.810Z,213.50
2022-10-23T09:37:40.271Z,215.45
2022-10-23T09:42:36.783Z,199.88
2022-10-23T09:47:33.062Z,189.80
2022-10-23T09:52:40.635Z,172.27
2022-10-23T09:57:44.706Z,159.05
2022-10-23T10:02:42.992Z,135.63
2022-10-23T10:08:21.657Z,130.55
2022-10-23T10:13:51.285Z,139.10
2022-10-23T10:18:53.203Z,158.30
2022-10-23T10:23:56.224Z,160.82
2022-10-23T10:28:49.197Z,182.25
2022-10-23T10:33:59.095Z,178.43
2022-10-23T10:38:59.120Z,140.70
2022-10-23T10:44:20.604Z,144.80
2022-10-23T10:49:26.797Z,142.15
2022-10-23T10:54:34.680Z,181.45
2022-10-23T10:59:40.138Z,210.25
2022-10-23T11:04:56.892Z,204.73
2022-10-23T11:09:52.093Z,181.98
2022-10-23T11:14:46.823Z,161.55
2022-10-23T11:19:48.376Z,144.07
2022-10-23T11:25:08.196Z,141.67
2022-10-23T11:30:23.463Z,135.70
2022-10-23T11:35:32.159Z,127.50
2022-10-23T11:40:26.649Z,138.68
2022-10-23T11:45:32.510Z,122.65
2022-10-23T11:50:31.956Z,116.07
2022-10-23T11:55:29.944Z,117.03
2022-10-23T12:00:24.919Z,112.07
2022-10-23T12:05:39.082Z,117.78
2022-10-23T12:10:48.351Z,116.03
2022-10-23T12:15:42.454Z,110.32
2022-10-23T12:21:00.537Z,102.55
2022-10-23T12:26:25.060Z,103.75
2022-10-23T12:31:48.235Z,100.47
2022-10-23T12:36:47.202Z,97.65
2022-10-23T12:41:41.044Z,101.57
2022-10-23T12:46:34.137Z,99.93
2022-10-23T12:51:32.825Z,102.90
2022-10-23T12:56:29.559Z,100.65
2022-10-23T13:01:31.593Z,95.60
2022-10-23T13:06:26.037Z,92.70
2022-10-23T13:11:19.644Z,97.32
2022-10-23T13:16:20.131Z,81.38
2022-10-23T13:21:24.536Z,86.43
2022-10-23T13:26:43.636Z,77.75
2022-10-23T13:31:37.136Z,82.43
2022-10-23T13:36:32.113Z,82.28
2022-10-23T13:41:28.447Z,73.88
2022-10-23T13:46:24.634Z,78.57
2022-10-23T13:51:22.933Z,73.00
2022-10-23T13:56:20.639Z,76.18
2022-10-23T14:01:44.599Z,64.28
2022-10-23T14:06:40.622Z,61.80
2022-10-23T14:11:34.465Z,67.35
2022-10-23T14:16:29.059Z,67.55
2022-10-23T14:21:24.076Z,56.35
2022-10-23T14:26:24.694Z,51.45
2022-10-23T14:31:19.092Z,67.93
2022-10-23T14:36:12.787Z,63.28
2022-10-23T14:41:15.260Z,56.17
2022-10-23T14:46:30.180Z,60.42
2022-10-23T14:51:29.492Z,54.55
2022-10-23T14:56:23.902Z,45.35
2022-10-23T15:01:17.706Z,55.40
2022-10-23T15:06:16.111Z,49.10
2022-10-23T15:11:12.947Z,47.85
2022-10-23T15:16:26.352Z,46.50
2022-10-23T15:21:19.358Z,46.35
2022-10-23T15:26:22.229Z,44.30
2022-10-23T15:31:49.572Z,48.58
2022-10-23T15:36:42.817Z,48.75
2022-10-23T15:41:38.968Z,48.03
2022-10-23T15:46:32.443Z,48.78
2022-10-23T15:51:26.192Z,51.45
2022-10-23T15:56:20.029Z,50.95
2022-10-23T16:01:14.223Z,49.58
2022-10-23T16:06:11.036Z,45.40
2022-10-23T16:11:05.721Z,48.80
2022-10-23T16:16:03.191Z,50.67
2022-10-23T16:20:57.651Z,49.95
2022-10-23T16:25:52.767Z,46.17
2022-10-23T16:30:47.135Z,51.55
2022-10-23T16:35:41.865Z,53.75
2022-10-23T16:40:41.833Z,53.03
2022-10-23T16:46:09.218Z,49.57
2022-10-23T16:51:13.435Z,53.25
2022-10-23T16:56:09.081Z,51.13
2022-10-23T17:01:06.813Z,50.03
2022-10-23T17:06:02.822Z,50.80
2022-10-23T17:11:06.394Z,55.15
2022-10-23T17:16:10.849Z,54.42
2022-10-23T17:21:04.979Z,53.78
2022-10-23T17:25:59.254Z,51.25
2022-10-23T17:30:57.357Z,51.72
2022-10-23T17:35:51.379Z,50.13
2022-10-23T17:40:47.944Z,48.10
2022-10-23T17:45:42.882Z,58.30
2022-10-23T17:50:36.308Z,50.30
2022-10-23T17:55:30.301Z,50.10
2022-10-23T18:00:24.985Z,45.88
2022-10-23T18:05:20.835Z,46.88
2022-10-23T18:10:19.298Z,47.03
2022-10-23T18:15:13.159Z,46.10
2022-10-23T18:20:09.148Z,46.80
2022-10-23T18:25:04.593Z,52.80
2022-10-23T18:29:58.619Z,50.90
2022-10-23T18:34:51.909Z,50.38
2022-10-23T18:39:45.761Z,49.72
2022-10-23T18:44:39.774Z,48.03
2022-10-23T18:49:33.071Z,47.72
2022-10-23T18:54:26.301Z,48.15
2022-10-23T18:59:21.847Z,47.85
2022-10-23T19:04:17.931Z,60.65
2022-10-23T19:09:16.916Z,55.85
2022-10-23T19:14:11.144Z,55.83
2022-10-23T19:19:11.146Z,60.42
2022-10-23T19:24:14.335Z,61.20
2022-10-23T19:29:10.500Z,64.35
2022-10-23T19:34:04.600Z,57.58
2022-10-23T19:38:59.031Z,57.20
2022-10-23T19:43:53.256Z,50.10
2022-10-23T19:48:47.610Z,53.00
2022-10-23T19:53:42.901Z,57.30
2022-10-23T19:58:37.372Z,53.25
2022-10-23T20:03:31.151Z,49.83
2022-10-23T20:08:25.513Z,51.60
2022-10-23T20:13:20.135Z,50.50
2022-10-23T20:18:14.132Z,51.88
2022-10-23T20:23:07.820Z,56.45
2022-10-23T20:28:01.633Z,52.00
2022-10-23T20:32:56.405Z,54.47
2022-10-23T20:37:50.196Z,49.25
2022-10-23T20:42:44.404Z,51.33
2022-10-23T20:47:38.198Z,42.75
2022-10-23T20:57:26.494Z,49.33
2022-10-23T21:02:19.602Z,49.03
2022-10-23T21:07:14.148Z,53.13
2022-10-23T21:12:07.771Z,47.95
2022-10-23T21:17:01.338Z,55.67
2022-10-23T21:21:55.862Z,54.67
2022-10-23T21:26:48.887Z,55.00
2022-10-23T21:31:42.480Z,51.83
2022-10-23T21:36:43.725Z,59.28
2022-10-23T21:41:49.784Z,57.38
2022-10-23T21:46:45.083Z,55.33
2022-10-23T21:51:38.905Z,47.25
2022-10-23T21:56:41.690Z,41.90
2022-10-23T22:01:36.341Z,60.50
2022-10-23T22:06:31.735Z,51.22
2022-10-23T22:11:25.306Z,53.28
2022-10-23T22:16:21.145Z,50.80
2022-10-23T22:21:25.873Z,47.95
2022-10-23T22:26:20.528Z,54.85
2022-10-23T22:31:18.873Z,47.72
2022-10-23T22:36:13.339Z,48.92
2022-10-23T22:41:08.475Z,48.40
2022-10-23T22:46:11.511Z,46.40
2022-10-23T22:51:07.357Z,51.57
2022-10-23T22:56:02.804Z,53.97
2022-10-23T23:01:13.482Z,46.42
2022-10-23T23:06:07.866Z,54.72
2022-10-23T23:11:02.371Z,51.42
2022-10-23T23:16:00.023Z,52.03
2022-10-23T23:20:53.358Z,58.95
2022-10-23T23:25:53.522Z,58.65
2022-10-23T23:30:47.902Z,54.88
2022-10-23T23:35:42.550Z,58.00
2022-10-23T23:40:36.481Z,58.78
2022-10-23T23:45:30.771Z,63.08
2022-10-23T23:50:24.022Z,63.05
2022-10-23T23:55:17.465Z,59.05
